sensor_id;sensor_type;location;lat;lon;timestamp;pressure;altitude;pressure_sealevel;temperature;humidity
13434;BME280;6789;47.678;9.158;2024-01-06T00:02:33;53387.41;;;-138.23;100.00
13434;BME280;6789;47.678;9.158;2024-01-06T00:07:25;53381.38;;;-138.23;100.00
13434;BME280;6789;47.678;9.158;2024-01-06T00:17:29;53397.44;;;-138.23;97.69
13434;BME280;6789;47.678;9.158;2024-01-06T00:22:21;53385.41;;;-138.23;97.12
13434;BME280;6789;47.678;9.158;2024-01-06T00:27:13;53419.53;;;-138.23;98.44
13434;BME280;6789;47.678;9.158;2024-01-06T00:32:05;53423.56;;;-138.23;99.33
13434;BME280;6789;47.678;9.158;2024-01-06T00:36:57;53391.41;;;-138.23;97.93
13434;BME280;6789;47.678;9.158;2024-01-06T00:41:49;53399.44;;;-138.23;97.63
13434;BME280;6789;47.678;9.158;2024-01-06T00:46:41;53393.44;;;-138.23;99.65
13434;BME280;6789;47.678;9.158;2024-01-06T00:51:32;53443.63;;;-138.23;100.00
13434;BME280;6789;47.678;9.158;2024-01-06T00:56:28;53405.47;;;-138.23;100.00
13434;BME280;6789;47.678;9.158;2024-01-06T01:01:20;53401.47;;;-138.23;100.00
13434;BME280;6789;47.678;9.158;2024-01-06T01:06:13;53379.38;;;-138.23;100.00
13434;BME280;6789;47.678;9.158;2024-01-06T01:11:05;53413.50;;;-138.23;100.00
13434;BME280;6789;47.678;9.158;2024-01-06T01:21:10;53399.44;;;-138.23;100.00
13434;BME280;6789;47.678;9.158;2024-01-06T01:26:02;53419.53;;;-138.23;100.00
13434;BME280;6789;47.678;9.158;2024-01-06T01:30:54;53409.50;;;-138.23;100.00
13434;BME280;6789;47.678;9.158;2024-01-06T01:35:46;53407.50;;;-138.23;100.00
13434;BME280;6789;47.678;9.158;2024-01-06T01:40:38;53391.41;;;-138.23;99.49
13434;BME280;6789;47.678;9.158;2024-01-06T01:45:30;53389.41;;;-138.23;100.00
13434;BME280;6789;47.678;9.158;2024-01-06T01:50:22;53411.50;;;-138.23;100.00
13434;BME280;6789;47.678;9.158;2024-01-06T01:55:14;53393.44;;;-138.23;99.91
13434;BME280;6789;47.678;9.158;2024-01-06T02:00:07;53409.50;;;-138.23;98.99
13434;BME280;6789;47.678;9.158;2024-01-06T02:04:59;53369.34;;;-138.23;96.97
13434;BME280;6789;47.678;9.158;2024-01-06T02:09:51;53399.44;;;-138.23;96.92
13434;BME280;6789;47.678;9.158;2024-01-06T02:14:43;53385.41;;;-138.23;98.44
13434;BME280;6789;47.678;9.158;2024-01-06T02:19:35;53411.50;;;-138.23;97.90
13434;BME280;6789;47.678;9.158;2024-01-06T02:24:27;53417.53;;;-138.23;96.47
13434;BME280;6789;47.678;9.158;2024-01-06T02:29:19;53399.44;;;-138.23;97.64
13434;BME280;6789;47.678;9.158;2024-01-06T02:34:11;53399.44;;;-138.23;98.34
13434;BME280;6789;47.678;9.158;2024-01-06T02:39:03;53395.44;;;-138.23;99.14
13434;BME280;6789;47.678;9.158;2024-01-06T02:43:55;53393.44;;;-138.23;97.41
13434;BME280;6789;47.678;9.158;2024-01-06T02:48:47;53401.47;;;-138.23;98.06
13434;BME280;6789;47.678;9.158;2024-01-06T02:53:39;53393.44;;;-138.23;98.43
13434;BME280;6789;47.678;9.158;2024-01-06T02:58:31;53385.41;;;-138.23;98.36
13434;BME280;6789;47.678;9.158;2024-01-06T03:03:23;53385.41;;;-138.23;98.38
13434;BME280;6789;47.678;9.158;2024-01-06T03:08:15;53419.53;;;-138.23;97.18
13434;BME280;6789;47.678;9.158;2024-01-06T03:18:10;53385.41;;;-138.23;95.23
13434;BME280;6789;47.678;9.158;2024-01-06T03:23:02;53389.41;;;-138.23;94.98
13434;BME280;6789;47.678;9.158;2024-01-06T03:27:54;53387.41;;;-138.23;90.43
13434;BME280;6789;47.678;9.158;2024-01-06T03:32:46;53409.50;;;-138.23;89.11
13434;BME280;6789;47.678;9.158;2024-01-06T03:37:37;53383.38;;;-138.23;89.45
13434;BME280;6789;47.678;9.158;2024-01-06T03:42:29;53385.41;;;-138.23;90.52
13434;BME280;6789;47.678;9.158;2024-01-06T03:47:21;53397.44;;;-138.23;90.45
13434;BME280;6789;47.678;9.158;2024-01-06T03:52:13;53373.34;;;-138.23;90.97
13434;BME280;6789;47.678;9.158;2024-01-06T03:57:05;53371.34;;;-138.23;91.32
13434;BME280;6789;47.678;9.158;2024-01-06T04:01:57;53401.47;;;-138.23;92.09
13434;BME280;6789;47.678;9.158;2024-01-06T04:06:49;53393.44;;;-138.23;92.31
13434;BME280;6789;47.678;9.158;2024-01-06T04:11:40;53419.53;;;-138.23;92.22
13434;BME280;6789;47.678;9.158;2024-01-06T04:16:32;53409.50;;;-138.23;92.67
13434;BME280;6789;47.678;9.158;2024-01-06T04:21:24;53399.44;;;-138.23;93.79
13434;BME280;6789;47.678;9.158;2024-01-06T04:26:16;53387.41;;;-138.23;94.44
13434;BME280;6789;47.678;9.158;2024-01-06T04:31:07;53421.53;;;-138.23;94.05
13434;BME280;6789;47.678;9.158;2024-01-06T04:36:05;53397.44;;;-138.23;94.15
13434;BME280;6789;47.678;9.158;2024-01-06T04:40:56;53421.53;;;-138.23;93.84
13434;BME280;6789;47.678;9.158;2024-01-06T04:45:48;53393.44;;;-138.23;93.78
13434;BME280;6789;47.678;9.158;2024-01-06T04:50:41;53421.53;;;-138.23;93.48
13434;BME280;6789;47.678;9.158;2024-01-06T04:55:33;53357.28;;;-138.23;92.53
13434;BME280;6789;47.678;9.158;2024-01-06T05:05:27;53415.53;;;-138.23;90.60
13434;BME280;6789;47.678;9.158;2024-01-06T05:10:19;53379.38;;;-138.23;89.73
13434;BME280;6789;47.678;9.158;2024-01-06T05:15:12;53389.41;;;-138.23;90.34
13434;BME280;6789;47.678;9.158;2024-01-06T05:20:04;53377.38;;;-138.23;89.75
13434;BME280;6789;47.678;9.158;2024-01-06T05:24:56;53409.50;;;-138.23;89.76
13434;BME280;6789;47.678;9.158;2024-01-06T05:29:48;53411.50;;;-138.23;88.48
13434;BME280;6789;47.678;9.158;2024-01-06T05:34:41;53397.44;;;-138.23;88.24
13434;BME280;6789;47.678;9.158;2024-01-06T05:39:33;53451.66;;;-138.23;87.93
13434;BME280;6789;47.678;9.158;2024-01-06T05:44:25;53377.38;;;-138.23;87.93
13434;BME280;6789;47.678;9.158;2024-01-06T05:49:16;53385.41;;;-138.23;87.83
13434;BME280;6789;47.678;9.158;2024-01-06T05:54:08;53375.34;;;-138.23;87.47
13434;BME280;6789;47.678;9.158;2024-01-06T05:59:00;53375.34;;;-138.23;87.77
13434;BME280;6789;47.678;9.158;2024-01-06T06:03:52;53405.47;;;-138.23;88.98
13434;BME280;6789;47.678;9.158;2024-01-06T06:08:44;53425.56;;;-138.23;89.31
13434;BME280;6789;47.678;9.158;2024-01-06T06:13:42;53357.28;;;-138.23;88.89
13434;BME280;6789;47.678;9.158;2024-01-06T06:18:34;53411.50;;;-138.23;88.54
13434;BME280;6789;47.678;9.158;2024-01-06T06:23:27;53421.53;;;-138.23;88.93
13434;BME280;6789;47.678;9.158;2024-01-06T06:28:20;53425.56;;;-138.23;89.28
13434;BME280;6789;47.678;9.158;2024-01-06T06:33:12;53381.38;;;-138.23;88.68
13434;BME280;6789;47.678;9.158;2024-01-06T06:38:04;53393.44;;;-138.23;88.21
13434;BME280;6789;47.678;9.158;2024-01-06T06:42:56;53437.59;;;-138.23;88.23
13434;BME280;6789;47.678;9.158;2024-01-06T06:47:50;53397.44;;;-138.23;88.09
13434;BME280;6789;47.678;9.158;2024-01-06T06:52:42;53405.47;;;-138.23;88.34
13434;BME280;6789;47.678;9.158;2024-01-06T06:57:34;53359.28;;;-138.23;88.01
13434;BME280;6789;47.678;9.158;2024-01-06T07:02:27;53413.50;;;-138.23;88.48
13434;BME280;6789;47.678;9.158;2024-01-06T07:07:19;53417.53;;;-138.23;88.02
13434;BME280;6789;47.678;9.158;2024-01-06T07:12:11;53425.56;;;-138.23;87.93
13434;BME280;6789;47.678;9.158;2024-01-06T07:17:03;53393.44;;;-138.23;88.18
13434;BME280;6789;47.678;9.158;2024-01-06T07:21:55;53419.53;;;-138.23;88.08
13434;BME280;6789;47.678;9.158;2024-01-06T07:26:47;53413.50;;;-138.23;87.85
13434;BME280;6789;47.678;9.158;2024-01-06T07:31:39;53413.50;;;-138.23;87.38
13434;BME280;6789;47.678;9.158;2024-01-06T07:36:31;53387.41;;;-138.23;87.33
13434;BME280;6789;47.678;9.158;2024-01-06T07:41:23;53397.44;;;-138.23;87.40
13434;BME280;6789;47.678;9.158;2024-01-06T07:46:15;53407.50;;;-138.23;87.45
13434;BME280;6789;47.678;9.158;2024-01-06T07:51:10;53387.41;;;-138.23;88.47
13434;BME280;6789;47.678;9.158;2024-01-06T07:56:03;53373.34;;;-138.23;89.13
13434;BME280;6789;47.678;9.158;2024-01-06T08:00:54;53405.47;;;-138.23;88.89
13434;BME280;6789;47.678;9.158;2024-01-06T08:05:46;53383.38;;;-138.23;87.81
13434;BME280;6789;47.678;9.158;2024-01-06T08:10:38;53383.38;;;-138.23;87.30
13434;BME280;6789;47.678;9.158;2024-01-06T08:15:31;53389.41;;;-138.23;86.46
13434;BME280;6789;47.678;9.158;2024-01-06T08:20:24;53385.41;;;-138.23;86.52
13434;BME280;6789;47.678;9.158;2024-01-06T08:25:16;53383.38;;;-138.23;85.96
13434;BME280;6789;47.678;9.158;2024-01-06T08:30:09;53409.50;;;-138.23;85.94
13434;BME280;6789;47.678;9.158;2024-01-06T08:35:01;53397.44;;;-138.23;85.66
13434;BME280;6789;47.678;9.158;2024-01-06T08:39:53;53377.38;;;-138.23;84.76
13434;BME280;6789;47.678;9.158;2024-01-06T08:44:45;53361.31;;;-138.23;83.66
13434;BME280;6789;47.678;9.158;2024-01-06T08:49:37;53373.34;;;-138.23;83.71
13434;BME280;6789;47.678;9.158;2024-01-06T08:54:29;53405.47;;;-138.23;82.63
13434;BME280;6789;47.678;9.158;2024-01-06T08:59:20;53411.50;;;-138.23;82.06
13434;BME280;6789;47.678;9.158;2024-01-06T09:04:12;53383.38;;;-138.23;81.98
13434;BME280;6789;47.678;9.158;2024-01-06T09:09:04;53389.41;;;-138.23;81.98
13434;BME280;6789;47.678;9.158;2024-01-06T09:13:57;53397.44;;;-138.23;81.13
13434;BME280;6789;47.678;9.158;2024-01-06T09:18:49;53373.34;;;-138.23;80.04
13434;BME280;6789;47.678;9.158;2024-01-06T09:23:41;53371.34;;;-138.23;79.29
13434;BME280;6789;47.678;9.158;2024-01-06T09:28:33;53361.31;;;-138.23;80.31
13434;BME280;6789;47.678;9.158;2024-01-06T09:33:24;53391.41;;;-138.23;79.26
13434;BME280;6789;47.678;9.158;2024-01-06T09:38:16;53385.41;;;-138.23;78.37
13434;BME280;6789;47.678;9.158;2024-01-06T09:43:09;53369.34;;;-138.23;78.01
13434;BME280;6789;47.678;9.158;2024-01-06T09:48:12;53403.47;;;-138.23;78.91
13434;BME280;6789;47.678;9.158;2024-01-06T09:53:06;53397.44;;;-138.23;78.53
13434;BME280;6789;47.678;9.158;2024-01-06T09:57:59;53365.31;;;-138.23;77.83
13434;BME280;6789;47.678;9.158;2024-01-06T10:02:54;53365.31;;;-138.23;77.98
13434;BME280;6789;47.678;9.158;2024-01-06T10:07:47;53351.25;;;-138.23;77.63
13434;BME280;6789;47.678;9.158;2024-01-06T10:12:41;53375.34;;;-138.23;77.05
13434;BME280;6789;47.678;9.158;2024-01-06T10:17:40;53417.53;;;-138.23;76.66
13434;BME280;6789;47.678;9.158;2024-01-06T10:22:32;53383.38;;;-138.23;76.95
13434;BME280;6789;47.678;9.158;2024-01-06T10:27:24;53331.19;;;-138.23;77.53
13434;BME280;6789;47.678;9.158;2024-01-06T10:32:16;53401.47;;;-138.23;78.55
13434;BME280;6789;47.678;9.158;2024-01-06T10:37:08;53343.22;;;-138.23;79.02
13434;BME280;6789;47.678;9.158;2024-01-06T10:42:02;53387.41;;;-138.23;79.10
13434;BME280;6789;47.678;9.158;2024-01-06T10:46:58;53397.44;;;-138.23;79.65
13434;BME280;6789;47.678;9.158;2024-01-06T10:51:53;53377.38;;;-138.23;80.63
13434;BME280;6789;47.678;9.158;2024-01-06T10:56:46;53377.38;;;-138.23;80.63
13434;BME280;6789;47.678;9.158;2024-01-06T11:01:41;53369.34;;;-138.23;79.83
13434;BME280;6789;47.678;9.158;2024-01-06T11:06:34;53375.34;;;-138.23;79.17
13434;BME280;6789;47.678;9.158;2024-01-06T11:11:28;53361.31;;;-138.23;78.50
13434;BME280;6789;47.678;9.158;2024-01-06T11:16:37;53337.19;;;-138.23;78.00
13434;BME280;6789;47.678;9.158;2024-01-06T11:21:33;53381.38;;;-138.23;77.67
13434;BME280;6789;47.678;9.158;2024-01-06T11:26:26;53367.31;;;-138.23;75.57
13434;BME280;6789;47.678;9.158;2024-01-06T11:31:18;53345.22;;;-138.23;75.81
13434;BME280;6789;47.678;9.158;2024-01-06T11:36:10;53361.31;;;-138.23;76.50
13434;BME280;6789;47.678;9.158;2024-01-06T11:41:02;53319.13;;;-138.23;76.37
13434;BME280;6789;47.678;9.158;2024-01-06T11:45:58;53377.38;;;-138.23;77.72
13434;BME280;6789;47.678;9.158;2024-01-06T11:50:52;53361.31;;;-138.23;76.98
13434;BME280;6789;47.678;9.158;2024-01-06T11:55:44;53353.25;;;-138.23;77.23
13434;BME280;6789;47.678;9.158;2024-01-06T12:00:36;53343.22;;;-138.23;77.00
13434;BME280;6789;47.678;9.158;2024-01-06T12:05:30;53377.38;;;-138.23;77.44
13434;BME280;6789;47.678;9.158;2024-01-06T12:10:24;53377.38;;;-138.23;76.63
13434;BME280;6789;47.678;9.158;2024-01-06T12:15:16;53373.34;;;-138.23;77.25
13434;BME280;6789;47.678;9.158;2024-01-06T12:20:09;53359.28;;;-138.23;76.07
13434;BME280;6789;47.678;9.158;2024-01-06T12:25:02;53381.38;;;-138.23;77.05
13434;BME280;6789;47.678;9.158;2024-01-06T12:29:57;53363.31;;;-138.23;77.15
13434;BME280;6789;47.678;9.158;2024-01-06T12:34:49;53341.22;;;-138.23;77.03
13434;BME280;6789;47.678;9.158;2024-01-06T12:39:43;53369.34;;;-138.23;76.31
13434;BME280;6789;47.678;9.158;2024-01-06T12:44:36;53333.19;;;-138.23;76.95
13434;BME280;6789;47.678;9.158;2024-01-06T12:49:30;53377.38;;;-138.23;76.51
13434;BME280;6789;47.678;9.158;2024-01-06T12:54:22;53389.41;;;-138.23;76.39
13434;BME280;6789;47.678;9.158;2024-01-06T12:59:13;53391.41;;;-138.23;76.15
13434;BME280;6789;47.678;9.158;2024-01-06T13:04:05;53385.41;;;-138.23;75.56
13434;BME280;6789;47.678;9.158;2024-01-06T13:08:57;53381.38;;;-138.23;75.41
13434;BME280;6789;47.678;9.158;2024-01-06T13:13:49;53337.19;;;-138.23;75.90
13434;BME280;6789;47.678;9.158;2024-01-06T13:18:41;53371.34;;;-138.23;75.88
13434;BME280;6789;47.678;9.158;2024-01-06T13:23:47;53353.25;;;-138.23;76.21
13434;BME280;6789;47.678;9.158;2024-01-06T13:28:52;53357.28;;;-138.23;76.67
13434;BME280;6789;47.678;9.158;2024-01-06T13:34:00;53361.31;;;-138.23;75.68
13434;BME280;6789;47.678;9.158;2024-01-06T13:38:52;53347.25;;;-138.23;76.61
13434;BME280;6789;47.678;9.158;2024-01-06T13:43:44;53369.34;;;-138.23;76.40
13434;BME280;6789;47.678;9.158;2024-01-06T13:48:36;53367.31;;;-138.23;76.50
13434;BME280;6789;47.678;9.158;2024-01-06T13:53:27;53365.31;;;-138.23;77.31
13434;BME280;6789;47.678;9.158;2024-01-06T13:58:19;53369.34;;;-138.23;77.28
13434;BME280;6789;47.678;9.158;2024-01-06T14:03:11;53391.41;;;-138.23;77.13
13434;BME280;6789;47.678;9.158;2024-01-06T14:08:04;53349.25;;;-138.23;78.27
13434;BME280;6789;47.678;9.158;2024-01-06T14:12:55;53365.31;;;-138.23;78.24
13434;BME280;6789;47.678;9.158;2024-01-06T14:17:47;53371.34;;;-138.23;78.87
13434;BME280;6789;47.678;9.158;2024-01-06T14:22:47;53353.25;;;-138.23;79.19
13434;BME280;6789;47.678;9.158;2024-01-06T14:27:39;53349.25;;;-138.23;79.61
13434;BME280;6789;47.678;9.158;2024-01-06T14:32:31;53397.44;;;-138.23;79.71
13434;BME280;6789;47.678;9.158;2024-01-06T14:37:24;53367.31;;;-138.23;81.06
13434;BME280;6789;47.678;9.158;2024-01-06T14:42:16;53367.31;;;-138.23;81.04
13434;BME280;6789;47.678;9.158;2024-01-06T14:47:10;53385.41;;;-138.23;81.16
13434;BME280;6789;47.678;9.158;2024-01-06T14:52:05;53367.31;;;-138.23;81.31
13434;BME280;6789;47.678;9.158;2024-01-06T14:56:57;53373.34;;;-138.23;81.54
13434;BME280;6789;47.678;9.158;2024-01-06T15:01:50;53395.44;;;-138.23;81.71
13434;BME280;6789;47.678;9.158;2024-01-06T15:06:42;53371.34;;;-138.23;81.08
13434;BME280;6789;47.678;9.158;2024-01-06T15:11:35;53385.41;;;-138.23;81.36
13434;BME280;6789;47.678;9.158;2024-01-06T15:16:27;53381.38;;;-138.23;82.17
13434;BME280;6789;47.678;9.158;2024-01-06T15:21:19;53357.28;;;-138.23;83.08
13434;BME280;6789;47.678;9.158;2024-01-06T15:26:22;53411.50;;;-138.23;82.65
13434;BME280;6789;47.678;9.158;2024-01-06T15:31:15;53377.38;;;-138.23;83.12
13434;BME280;6789;47.678;9.158;2024-01-06T15:36:06;53367.31;;;-138.23;83.75
13434;BME280;6789;47.678;9.158;2024-01-06T15:40:58;53365.31;;;-138.23;83.60
13434;BME280;6789;47.678;9.158;2024-01-06T15:45:52;53359.28;;;-138.23;84.37
13434;BME280;6789;47.678;9.158;2024-01-06T15:50:45;53373.34;;;-138.23;85.04
13434;BME280;6789;47.678;9.158;2024-01-06T15:55:37;53361.31;;;-138.23;85.77
13434;BME280;6789;47.678;9.158;2024-01-06T16:00:29;53385.41;;;-138.23;86.53
13434;BME280;6789;47.678;9.158;2024-01-06T16:05:23;53395.44;;;-138.23;86.21
13434;BME280;6789;47.678;9.158;2024-01-06T16:10:15;53413.50;;;-138.23;86.31
13434;BME280;6789;47.678;9.158;2024-01-06T16:15:07;53413.50;;;-138.23;86.95
13434;BME280;6789;47.678;9.158;2024-01-06T16:19:59;53365.31;;;-138.23;83.94
13434;BME280;6789;47.678;9.158;2024-01-06T16:24:56;53365.31;;;-138.23;83.16
13434;BME280;6789;47.678;9.158;2024-01-06T16:29:48;53373.34;;;-138.23;84.92
13434;BME280;6789;47.678;9.158;2024-01-06T16:34:40;53379.38;;;-138.23;85.96
13434;BME280;6789;47.678;9.158;2024-01-06T16:39:33;53377.38;;;-138.23;85.97
13434;BME280;6789;47.678;9.158;2024-01-06T16:44:25;53391.41;;;-138.23;86.70
13434;BME280;6789;47.678;9.158;2024-01-06T16:49:17;53377.38;;;-138.23;87.17
13434;BME280;6789;47.678;9.158;2024-01-06T16:54:09;53373.34;;;-138.23;85.08
13434;BME280;6789;47.678;9.158;2024-01-06T16:59:00;53381.38;;;-138.23;84.31
13434;BME280;6789;47.678;9.158;2024-01-06T17:03:52;53355.28;;;-138.23;80.96
13434;BME280;6789;47.678;9.158;2024-01-06T17:08:44;53401.47;;;-138.23;81.63
13434;BME280;6789;47.678;9.158;2024-01-06T17:13:36;53375.34;;;-138.23;83.25
13434;BME280;6789;47.678;9.158;2024-01-06T17:18:27;53345.22;;;-138.23;80.71
13434;BME280;6789;47.678;9.158;2024-01-06T17:23:19;53383.38;;;-138.23;82.23
13434;BME280;6789;47.678;9.158;2024-01-06T17:28:11;53379.38;;;-138.23;83.68
13434;BME280;6789;47.678;9.158;2024-01-06T17:33:03;53393.44;;;-138.23;83.27
13434;BME280;6789;47.678;9.158;2024-01-06T17:37:55;53393.44;;;-138.23;84.35
13434;BME280;6789;47.678;9.158;2024-01-06T17:42:47;53389.41;;;-138.23;85.11
13434;BME280;6789;47.678;9.158;2024-01-06T17:47:39;53349.25;;;-138.23;85.12
13434;BME280;6789;47.678;9.158;2024-01-06T17:52:32;53377.38;;;-138.23;83.98
13434;BME280;6789;47.678;9.158;2024-01-06T17:57:24;53375.34;;;-138.23;81.85
13434;BME280;6789;47.678;9.158;2024-01-06T18:02:16;53383.38;;;-138.23;82.94
13434;BME280;6789;47.678;9.158;2024-01-06T18:07:08;53385.41;;;-138.23;83.49
13434;BME280;6789;47.678;9.158;2024-01-06T18:12:00;53383.38;;;-138.23;83.60
13434;BME280;6789;47.678;9.158;2024-01-06T18:16:52;53405.47;;;-138.23;84.29
13434;BME280;6789;47.678;9.158;2024-01-06T18:21:44;53407.50;;;-138.23;83.01
13434;BME280;6789;47.678;9.158;2024-01-06T18:26:36;53389.41;;;-138.23;84.30
13434;BME280;6789;47.678;9.158;2024-01-06T18:31:28;53395.44;;;-138.23;84.37
13434;BME280;6789;47.678;9.158;2024-01-06T18:36:20;53389.41;;;-138.23;83.73
13434;BME280;6789;47.678;9.158;2024-01-06T18:41:13;53397.44;;;-138.23;83.86
13434;BME280;6789;47.678;9.158;2024-01-06T18:46:05;53443.63;;;-138.23;81.90
13434;BME280;6789;47.678;9.158;2024-01-06T18:50:57;53373.34;;;-138.23;82.53
13434;BME280;6789;47.678;9.158;2024-01-06T18:55:48;53417.53;;;-138.23;81.35
13434;BME280;6789;47.678;9.158;2024-01-06T19:00:40;53415.53;;;-138.23;82.28
13434;BME280;6789;47.678;9.158;2024-01-06T19:05:32;53397.44;;;-138.23;81.99
13434;BME280;6789;47.678;9.158;2024-01-06T19:10:25;53389.41;;;-138.23;82.03
13434;BME280;6789;47.678;9.158;2024-01-06T19:15:16;53381.38;;;-138.23;82.53
13434;BME280;6789;47.678;9.158;2024-01-06T19:20:09;53431.59;;;-138.23;82.53
13434;BME280;6789;47.678;9.158;2024-01-06T19:25:01;53397.44;;;-138.23;83.27
13434;BME280;6789;47.678;9.158;2024-01-06T19:29:53;53395.44;;;-138.23;83.18
13434;BME280;6789;47.678;9.158;2024-01-06T19:34:45;53417.53;;;-138.23;83.28
13434;BME280;6789;47.678;9.158;2024-01-06T19:39:37;53385.41;;;-138.23;84.60
13434;BME280;6789;47.678;9.158;2024-01-06T19:44:29;53381.38;;;-138.23;85.66
13434;BME280;6789;47.678;9.158;2024-01-06T19:49:21;53399.44;;;-138.23;85.72
13434;BME280;6789;47.678;9.158;2024-01-06T19:54:13;53401.47;;;-138.23;85.68
13434;BME280;6789;47.678;9.158;2024-01-06T19:59:08;53381.38;;;-138.23;85.70
13434;BME280;6789;47.678;9.158;2024-01-06T20:04:00;53457.69;;;-138.23;83.97
13434;BME280;6789;47.678;9.158;2024-01-06T20:08:52;53399.44;;;-138.23;82.91
13434;BME280;6789;47.678;9.158;2024-01-06T20:13:44;53429.56;;;-138.23;84.07
13434;BME280;6789;47.678;9.158;2024-01-06T20:18:36;53385.41;;;-138.23;85.59
13434;BME280;6789;47.678;9.158;2024-01-06T20:23:29;53381.38;;;-138.23;85.08
13434;BME280;6789;47.678;9.158;2024-01-06T20:28:21;53397.44;;;-138.23;85.32
13434;BME280;6789;47.678;9.158;2024-01-06T20:33:13;53413.50;;;-138.23;86.18
13434;BME280;6789;47.678;9.158;2024-01-06T20:38:06;53415.53;;;-138.23;87.04
13434;BME280;6789;47.678;9.158;2024-01-06T20:42:58;53409.50;;;-138.23;87.31
13434;BME280;6789;47.678;9.158;2024-01-06T20:47:50;53389.41;;;-138.23;88.77
13434;BME280;6789;47.678;9.158;2024-01-06T20:52:43;53401.47;;;-138.23;89.69
13434;BME280;6789;47.678;9.158;2024-01-06T20:57:34;53427.56;;;-138.23;89.62
13434;BME280;6789;47.678;9.158;2024-01-06T21:02:26;53409.50;;;-138.23;89.43
13434;BME280;6789;47.678;9.158;2024-01-06T21:07:18;53427.56;;;-138.23;89.04
13434;BME280;6789;47.678;9.158;2024-01-06T21:12:10;53423.56;;;-138.23;89.93
13434;BME280;6789;47.678;9.158;2024-01-06T21:17:02;53437.59;;;-138.23;89.84
13434;BME280;6789;47.678;9.158;2024-01-06T21:21:53;53375.34;;;-138.23;89.69
13434;BME280;6789;47.678;9.158;2024-01-06T21:26:45;53415.53;;;-138.23;89.39
13434;BME280;6789;47.678;9.158;2024-01-06T21:31:38;53425.56;;;-138.23;89.23
13434;BME280;6789;47.678;9.158;2024-01-06T21:36:30;53465.72;;;-138.23;89.93
13434;BME280;6789;47.678;9.158;2024-01-06T21:41:22;53433.59;;;-138.23;89.81
13434;BME280;6789;47.678;9.158;2024-01-06T21:46:14;53403.47;;;-138.23;88.48
13434;BME280;6789;47.678;9.158;2024-01-06T21:51:06;53425.56;;;-138.23;88.74
13434;BME280;6789;47.678;9.158;2024-01-06T21:55:58;53433.59;;;-138.23;90.36
13434;BME280;6789;47.678;9.158;2024-01-06T22:00:50;53401.47;;;-138.23;90.51
13434;BME280;6789;47.678;9.158;2024-01-06T22:05:43;53431.59;;;-138.23;90.91
13434;BME280;6789;47.678;9.158;2024-01-06T22:10:35;53391.41;;;-138.23;90.63
13434;BME280;6789;47.678;9.158;2024-01-06T22:15:26;53417.53;;;-138.23;91.02
13434;BME280;6789;47.678;9.158;2024-01-06T22:20:19;53425.56;;;-138.23;89.28
13434;BME280;6789;47.678;9.158;2024-01-06T22:25:11;53417.53;;;-138.23;88.62
13434;BME280;6789;47.678;9.158;2024-01-06T22:30:04;53401.47;;;-138.23;87.44
13434;BME280;6789;47.678;9.158;2024-01-06T22:34:56;53401.47;;;-138.23;86.63
13434;BME280;6789;47.678;9.158;2024-01-06T22:39:49;53385.41;;;-138.23;87.54
13434;BME280;6789;47.678;9.158;2024-01-06T22:44:41;53411.50;;;-138.23;86.80
13434;BME280;6789;47.678;9.158;2024-01-06T22:49:33;53437.59;;;-138.23;86.62
13434;BME280;6789;47.678;9.158;2024-01-06T22:54:25;53437.59;;;-138.23;86.12
13434;BME280;6789;47.678;9.158;2024-01-06T22:59:17;53431.59;;;-138.23;86.44
13434;BME280;6789;47.678;9.158;2024-01-06T23:04:30;53423.56;;;-138.23;86.18
13434;BME280;6789;47.678;9.158;2024-01-06T23:14:55;53453.66;;;-138.23;86.36
13434;BME280;6789;47.678;9.158;2024-01-06T23:19:47;53427.56;;;-138.23;86.47
13434;BME280;6789;47.678;9.158;2024-01-06T23:24:39;53391.41;;;-138.23;87.21
13434;BME280;6789;47.678;9.158;2024-01-06T23:29:30;53411.50;;;-138.23;87.77
13434;BME280;6789;47.678;9.158;2024-01-06T23:34:22;53427.56;;;-138.23;85.79
13434;BME280;6789;47.678;9.158;2024-01-06T23:39:29;53453.66;;;-138.23;86.99
13434;BME280;6789;47.678;9.158;2024-01-06T23:44:20;53393.44;;;-138.23;86.70
13434;BME280;6789;47.678;9.158;2024-01-06T23:49:13;53419.53;;;-138.23;85.13
13434;BME280;6789;47.678;9.158;2024-01-06T23:54:05;53445.63;;;-138.23;85.80
13434;BME280;6789;47.678;9.158;2024-01-06T23:58:57;53441.63;;;-138.23;85.21
